Barkley Regional Airport
KPAH : now visible

Airfield :











YOU CAN JOIN US ON...

 
LOGIN :

Register | Disclaimer

   EN    FR    IT 

 









Legend :    VFR   Marginal VFR   IFR   Intensive IFR   Very Intensive IFR
Visi :
Ceiling :
>= 8 km
>= 3000ft
5 to 8 km
1000 to 3000 ft
1500m to 5 km
500 to 1000 ft
800 to 1500m
200 to 500 ft
< 800m
< 200 ft
Symbols :   Thunderstorms  Fog  Heavy snow  Heavy precipitations  Wind > 20 kt






- Airport Elevation : 410 ft
- IATA code : PAH


KPAH - Barkley Regional

CURRENT METAR :
  • 281953Z 00000KT 10SM OVC028 11/06 A2996 RMK AO2 SLP146 T01060056

EXPIRED METARs :
  • 281943Z 00000KT 10SM OVC028 11/06 A2997 RMK AO2 T01060056
  • 281853Z VRB04KT 10SM OVC031 11/06 A2996 RMK AO2 SLP146 T01060061
  • 281803Z VRB04KT 10SM OVC030 10/06 A2998 RMK AO2 T01000056
  • 281753Z VRB04KT 10SM OVC029 10/06 A2998 RMK AO2 SLP153 T01000056 10100 20072 58007

TAF KPAH
Valid from the 28 at 18:00 until the 29 at 18:00 UTC


281720Z 2818/2918 18003KT P6SM BKN029
FM282100 18004KT P6SM SCT035
FM290000 16005KT P6SM SCT250
FM291400 16012G22KT P6SM SCT030 BKN200
KZME FIR / North America



MET'MAP, your aeronautical weather chart ! - Copyright ORBIFLY December 2007 - Disclaimer

ORBIFLY MET'MAP TEAM :

Programming & Development : Alexandra Zaïnal
Original concept : Baudouin d'Aumeries
Technical & hardware support : Manuel Goepfert
Assistance : Marc-Olivier Méhu




SOURCES & CREDITS :

   NOAA       Earth
Advisory